sensor_id;sensor_type;location;lat;lon;timestamp;temperature;humidity
69162;DHT22;56269;51.738;21.652;2022-09-03T00:00:35;6.27;98.06
69162;DHT22;56269;51.738;21.652;2022-09-03T00:03:13;6.21;98.25
69162;DHT22;56269;51.738;21.652;2022-09-03T00:05:47;6.20;98.86
69162;DHT22;56269;51.738;21.652;2022-09-03T00:10:50;6.26;98.07
69162;DHT22;56269;51.738;21.652;2022-09-03T00:13:22;6.26;98.13
69162;DHT22;56269;51.738;21.652;2022-09-03T00:15:51;6.26;98.27
69162;DHT22;56269;51.738;21.652;2022-09-03T00:18:26;6.20;98.47
69162;DHT22;56269;51.738;21.652;2022-09-03T00:20:58;6.19;98.44
69162;DHT22;56269;51.738;21.652;2022-09-03T00:23:35;6.14;98.34
69162;DHT22;56269;51.738;21.652;2022-09-03T00:28:44;6.09;98.43
69162;DHT22;56269;51.738;21.652;2022-09-03T00:31:49;6.09;98.73
69162;DHT22;56269;51.738;21.652;2022-09-03T00:34:29;6.06;98.78
69162;DHT22;56269;51.738;21.652;2022-09-03T00:36:56;6.02;99.09
69162;DHT22;56269;51.738;21.652;2022-09-03T00:39:25;5.92;98.98
69162;DHT22;56269;51.738;21.652;2022-09-03T00:42:06;5.79;98.83
69162;DHT22;56269;51.738;21.652;2022-09-03T00:44:41;5.79;99.73
69162;DHT22;56269;51.738;21.652;2022-09-03T00:47:29;5.78;99.99
69162;DHT22;56269;51.738;21.652;2022-09-03T00:55:53;5.66;99.99
69162;DHT22;56269;51.738;21.652;2022-09-03T01:01:07;5.72;99.99
69162;DHT22;56269;51.738;21.652;2022-09-03T01:03:43;5.63;99.99
69162;DHT22;56269;51.738;21.652;2022-09-03T01:06:18;5.55;99.99
69162;DHT22;56269;51.738;21.652;2022-09-03T01:09:21;5.52;99.99
69162;DHT22;56269;51.738;21.652;2022-09-03T01:12:00;5.54;99.99
69162;DHT22;56269;51.738;21.652;2022-09-03T01:17:50;5.58;99.99
69162;DHT22;56269;51.738;21.652;2022-09-03T01:20:33;5.51;99.99
69162;DHT22;56269;51.738;21.652;2022-09-03T01:29:08;5.72;99.99
69162;DHT22;56269;51.738;21.652;2022-09-03T01:31:52;5.62;99.99
69162;DHT22;56269;51.738;21.652;2022-09-03T02:00:07;5.23;99.99
69162;DHT22;56269;51.738;21.652;2022-09-03T02:02:35;5.23;99.99
69162;DHT22;56269;51.738;21.652;2022-09-03T02:10:17;5.21;99.99
69162;DHT22;56269;51.738;21.652;2022-09-03T02:12:51;5.24;99.99
69162;DHT22;56269;51.738;21.652;2022-09-03T02:15:20;5.27;99.99
69162;DHT22;56269;51.738;21.652;2022-09-03T02:17:48;5.20;99.99
69162;DHT22;56269;51.738;21.652;2022-09-03T02:20:22;5.18;99.99
69162;DHT22;56269;51.738;21.652;2022-09-03T02:22:49;5.25;99.99
69162;DHT22;56269;51.738;21.652;2022-09-03T02:25:16;5.18;99.99
69162;DHT22;56269;51.738;21.652;2022-09-03T02:27:43;5.17;99.99
69162;DHT22;56269;51.738;21.652;2022-09-03T02:30:10;5.11;99.99
69162;DHT22;56269;51.738;21.652;2022-09-03T02:32:36;5.18;99.99
69162;DHT22;56269;51.738;21.652;2022-09-03T02:35:03;5.14;99.99
69162;DHT22;56269;51.738;21.652;2022-09-03T02:37:29;5.15;99.99
69162;DHT22;56269;51.738;21.652;2022-09-03T02:39:55;5.00;99.99
69162;DHT22;56269;51.738;21.652;2022-09-03T02:42:20;5.00;99.99
69162;DHT22;56269;51.738;21.652;2022-09-03T02:44:52;4.90;99.99
69162;DHT22;56269;51.738;21.652;2022-09-03T02:47:20;4.90;99.99
69162;DHT22;56269;51.738;21.652;2022-09-03T02:49:47;4.87;99.99
69162;DHT22;56269;51.738;21.652;2022-09-03T02:52:13;4.90;99.99
69162;DHT22;56269;51.738;21.652;2022-09-03T02:54:40;4.88;99.99
69162;DHT22;56269;51.738;21.652;2022-09-03T02:57:08;4.90;99.99
69162;DHT22;56269;51.738;21.652;2022-09-03T02:59:35;4.88;99.99
69162;DHT22;56269;51.738;21.652;2022-09-03T03:02:02;4.90;99.99
69162;DHT22;56269;51.738;21.652;2022-09-03T03:04:31;4.81;99.99
69162;DHT22;56269;51.738;21.652;2022-09-03T03:06:58;4.88;99.99
69162;DHT22;56269;51.738;21.652;2022-09-03T03:09:24;4.87;99.99
69162;DHT22;56269;51.738;21.652;2022-09-03T03:11:50;4.91;99.99
69162;DHT22;56269;51.738;21.652;2022-09-03T03:14:17;4.91;99.99
69162;DHT22;56269;51.738;21.652;2022-09-03T03:16:43;4.94;99.99
69162;DHT22;56269;51.738;21.652;2022-09-03T03:19:09;4.96;99.99
69162;DHT22;56269;51.738;21.652;2022-09-03T03:21:35;4.94;99.99
69162;DHT22;56269;51.738;21.652;2022-09-03T03:24:02;4.91;99.99
69162;DHT22;56269;51.738;21.652;2022-09-03T03:26:28;4.90;99.99
69162;DHT22;56269;51.738;21.652;2022-09-03T03:28:56;4.87;99.99
69162;DHT22;56269;51.738;21.652;2022-09-03T03:31:23;4.88;99.99
69162;DHT22;56269;51.738;21.652;2022-09-03T03:33:53;5.00;99.99
69162;DHT22;56269;51.738;21.652;2022-09-03T03:36:21;4.86;99.99
69162;DHT22;56269;51.738;21.652;2022-09-03T03:38:48;4.86;99.99
69162;DHT22;56269;51.738;21.652;2022-09-03T03:41:19;4.86;99.99
69162;DHT22;56269;51.738;21.652;2022-09-03T03:43:55;4.79;99.99
69162;DHT22;56269;51.738;21.652;2022-09-03T03:46:23;4.80;99.99
69162;DHT22;56269;51.738;21.652;2022-09-03T03:48:51;4.74;99.99
69162;DHT22;56269;51.738;21.652;2022-09-03T03:51:17;4.77;99.99
69162;DHT22;56269;51.738;21.652;2022-09-03T03:53:45;4.77;99.99
69162;DHT22;56269;51.738;21.652;2022-09-03T03:56:13;4.86;99.99
69162;DHT22;56269;51.738;21.652;2022-09-03T03:58:40;4.87;99.99
69162;DHT22;56269;51.738;21.652;2022-09-03T04:01:18;4.88;99.99
69162;DHT22;56269;51.738;21.652;2022-09-03T04:03:45;4.97;99.99
69162;DHT22;56269;51.738;21.652;2022-09-03T04:06:13;5.04;99.99
69162;DHT22;56269;51.738;21.652;2022-09-03T04:08:41;5.04;99.99
69162;DHT22;56269;51.738;21.652;2022-09-03T04:11:09;5.04;99.99
69162;DHT22;56269;51.738;21.652;2022-09-03T04:13:37;5.10;99.99
69162;DHT22;56269;51.738;21.652;2022-09-03T04:16:06;5.10;99.99
69162;DHT22;56269;51.738;21.652;2022-09-03T04:18:33;5.14;99.99
69162;DHT22;56269;51.738;21.652;2022-09-03T04:21:02;5.18;99.99
69162;DHT22;56269;51.738;21.652;2022-09-03T04:23:42;5.21;99.99
69162;DHT22;56269;51.738;21.652;2022-09-03T04:26:10;5.28;99.99
69162;DHT22;56269;51.738;21.652;2022-09-03T04:28:36;5.25;99.99
69162;DHT22;56269;51.738;21.652;2022-09-03T04:31:04;5.25;99.99
69162;DHT22;56269;51.738;21.652;2022-09-03T04:33:31;5.32;99.99
69162;DHT22;56269;51.738;21.652;2022-09-03T04:36:03;5.35;99.99
69162;DHT22;56269;51.738;21.652;2022-09-03T04:38:31;5.44;99.99
69162;DHT22;56269;51.738;21.652;2022-09-03T04:40:58;5.52;99.99
69162;DHT22;56269;51.738;21.652;2022-09-03T04:43:26;5.70;99.64
69162;DHT22;56269;51.738;21.652;2022-09-03T04:45:57;5.70;99.99
69162;DHT22;56269;51.738;21.652;2022-09-03T04:48:23;5.68;99.65
69162;DHT22;56269;51.738;21.652;2022-09-03T04:50:49;5.68;99.80
69162;DHT22;56269;51.738;21.652;2022-09-03T04:53:15;5.76;99.72
69162;DHT22;56269;51.738;21.652;2022-09-03T04:55:41;5.85;99.78
69162;DHT22;56269;51.738;21.652;2022-09-03T04:58:07;5.99;99.42
69162;DHT22;56269;51.738;21.652;2022-09-03T05:00:35;6.05;99.59
69162;DHT22;56269;51.738;21.652;2022-09-03T05:03:02;6.17;99.48
69162;DHT22;56269;51.738;21.652;2022-09-03T05:05:30;6.27;98.59
69162;DHT22;56269;51.738;21.652;2022-09-03T05:07:59;6.44;97.95
69162;DHT22;56269;51.738;21.652;2022-09-03T05:10:26;6.60;98.14
69162;DHT22;56269;51.738;21.652;2022-09-03T05:13:04;6.72;98.00
69162;DHT22;56269;51.738;21.652;2022-09-03T05:15:31;6.85;97.78
69162;DHT22;56269;51.738;21.652;2022-09-03T05:17:59;7.02;96.83
69162;DHT22;56269;51.738;21.652;2022-09-03T05:20:27;7.33;95.92
69162;DHT22;56269;51.738;21.652;2022-09-03T05:22:55;7.77;95.00
69162;DHT22;56269;51.738;21.652;2022-09-03T05:25:22;8.38;92.86
69162;DHT22;56269;51.738;21.652;2022-09-03T05:27:49;9.01;89.96
69162;DHT22;56269;51.738;21.652;2022-09-03T05:30:15;9.61;86.54
69162;DHT22;56269;51.738;21.652;2022-09-03T05:32:41;9.92;86.28
69162;DHT22;56269;51.738;21.652;2022-09-03T05:35:08;10.36;86.68
69162;DHT22;56269;51.738;21.652;2022-09-03T05:37:36;10.80;83.75
69162;DHT22;56269;51.738;21.652;2022-09-03T05:40:03;11.21;83.42
69162;DHT22;56269;51.738;21.652;2022-09-03T05:42:29;11.77;81.49
69162;DHT22;56269;51.738;21.652;2022-09-03T05:44:57;12.24;76.01
69162;DHT22;56269;51.738;21.652;2022-09-03T05:47:23;12.74;76.31
69162;DHT22;56269;51.738;21.652;2022-09-03T05:49:48;13.03;72.63
69162;DHT22;56269;51.738;21.652;2022-09-03T05:52:15;13.22;73.09
69162;DHT22;56269;51.738;21.652;2022-09-03T05:54:41;13.64;72.59
69162;DHT22;56269;51.738;21.652;2022-09-03T05:57:07;14.11;72.76
69162;DHT22;56269;51.738;21.652;2022-09-03T05:59:33;14.30;71.72
69162;DHT22;56269;51.738;21.652;2022-09-03T06:01:59;14.52;68.58
69162;DHT22;56269;51.738;21.652;2022-09-03T06:04:25;14.77;67.29
69162;DHT22;56269;51.738;21.652;2022-09-03T06:06:51;15.17;67.95
69162;DHT22;56269;51.738;21.652;2022-09-03T06:09:20;15.50;66.95
69162;DHT22;56269;51.738;21.652;2022-09-03T06:11:47;15.95;63.19
69162;DHT22;56269;51.738;21.652;2022-09-03T06:14:14;15.88;64.99
69162;DHT22;56269;51.738;21.652;2022-09-03T06:16:43;16.03;64.13
69162;DHT22;56269;51.738;21.652;2022-09-03T06:19:10;16.27;59.96
69162;DHT22;56269;51.738;21.652;2022-09-03T06:21:37;16.36;60.92
69162;DHT22;56269;51.738;21.652;2022-09-03T06:24:12;16.53;60.05
69162;DHT22;56269;51.738;21.652;2022-09-03T06:26:39;17.05;58.15
69162;DHT22;56269;51.738;21.652;2022-09-03T06:29:05;17.32;61.70
69162;DHT22;56269;51.738;21.652;2022-09-03T06:31:32;17.42;57.43
69162;DHT22;56269;51.738;21.652;2022-09-03T06:34:00;17.65;57.53
69162;DHT22;56269;51.738;21.652;2022-09-03T06:36:27;17.40;60.89
69162;DHT22;56269;51.738;21.652;2022-09-03T06:38:54;17.97;55.21
69162;DHT22;56269;51.738;21.652;2022-09-03T06:41:26;18.18;56.37
69162;DHT22;56269;51.738;21.652;2022-09-03T06:44:18;18.58;52.56
69162;DHT22;56269;51.738;21.652;2022-09-03T06:46:44;18.99;51.83
69162;DHT22;56269;51.738;21.652;2022-09-03T06:49:11;18.98;50.82
69162;DHT22;56269;51.738;21.652;2022-09-03T06:51:37;19.20;52.88
69162;DHT22;56269;51.738;21.652;2022-09-03T06:54:05;19.37;51.61
69162;DHT22;56269;51.738;21.652;2022-09-03T06:56:33;19.43;50.38
69162;DHT22;56269;51.738;21.652;2022-09-03T06:59:03;19.80;50.59
69162;DHT22;56269;51.738;21.652;2022-09-03T07:01:30;20.33;49.00
69162;DHT22;56269;51.738;21.652;2022-09-03T07:03:59;20.22;49.43
69162;DHT22;56269;51.738;21.652;2022-09-03T07:06:28;20.55;48.54
69162;DHT22;56269;51.738;21.652;2022-09-03T07:08:55;20.87;47.06
69162;DHT22;56269;51.738;21.652;2022-09-03T07:11:23;20.26;47.25
69162;DHT22;56269;51.738;21.652;2022-09-03T07:13:52;20.70;46.51
69162;DHT22;56269;51.738;21.652;2022-09-03T07:16:21;20.26;46.89
69162;DHT22;56269;51.738;21.652;2022-09-03T07:18:48;20.35;47.22
69162;DHT22;56269;51.738;21.652;2022-09-03T07:21:19;20.53;46.05
69162;DHT22;56269;51.738;21.652;2022-09-03T07:23:46;20.79;45.69
69162;DHT22;56269;51.738;21.652;2022-09-03T07:26:16;20.70;44.49
69162;DHT22;56269;51.738;21.652;2022-09-03T07:28:45;20.89;45.26
69162;DHT22;56269;51.738;21.652;2022-09-03T07:31:15;21.28;44.64
69162;DHT22;56269;51.738;21.652;2022-09-03T07:33:41;20.76;44.99
69162;DHT22;56269;51.738;21.652;2022-09-03T07:36:09;21.30;44.78
69162;DHT22;56269;51.738;21.652;2022-09-03T07:38:36;20.83;43.43
69162;DHT22;56269;51.738;21.652;2022-09-03T07:41:07;21.28;45.70
69162;DHT22;56269;51.738;21.652;2022-09-03T07:43:36;21.26;43.81
69162;DHT22;56269;51.738;21.652;2022-09-03T07:46:05;21.37;43.20
69162;DHT22;56269;51.738;21.652;2022-09-03T07:48:32;21.21;44.07
69162;DHT22;56269;51.738;21.652;2022-09-03T07:50:59;21.30;42.51
69162;DHT22;56269;51.738;21.652;2022-09-03T07:53:28;21.37;41.76
69162;DHT22;56269;51.738;21.652;2022-09-03T07:56:04;21.10;43.78
69162;DHT22;56269;51.738;21.652;2022-09-03T07:58:32;21.26;41.48
69162;DHT22;56269;51.738;21.652;2022-09-03T08:01:07;21.48;43.62
69162;DHT22;56269;51.738;21.652;2022-09-03T08:03:34;21.28;43.86
69162;DHT22;56269;51.738;21.652;2022-09-03T08:06:02;21.40;39.66
69162;DHT22;56269;51.738;21.652;2022-09-03T08:08:29;21.62;38.98
69162;DHT22;56269;51.738;21.652;2022-09-03T08:11:23;21.24;39.79
69162;DHT22;56269;51.738;21.652;2022-09-03T08:13:57;20.77;40.60
69162;DHT22;56269;51.738;21.652;2022-09-03T08:16:34;20.99;38.79
69162;DHT22;56269;51.738;21.652;2022-09-03T08:19:00;20.83;38.84
69162;DHT22;56269;51.738;21.652;2022-09-03T08:21:27;21.10;40.36
69162;DHT22;56269;51.738;21.652;2022-09-03T08:23:55;21.40;40.54
69162;DHT22;56269;51.738;21.652;2022-09-03T08:26:29;21.75;40.01
69162;DHT22;56269;51.738;21.652;2022-09-03T08:28:57;21.93;38.33
69162;DHT22;56269;51.738;21.652;2022-09-03T08:31:23;21.66;37.12
69162;DHT22;56269;51.738;21.652;2022-09-03T08:33:51;21.33;38.89
69162;DHT22;56269;51.738;21.652;2022-09-03T08:36:22;21.75;37.44
69162;DHT22;56269;51.738;21.652;2022-09-03T08:38:50;21.98;35.53
69162;DHT22;56269;51.738;21.652;2022-09-03T08:41:27;21.77;36.61
69162;DHT22;56269;51.738;21.652;2022-09-03T08:52:23;22.83;37.30
69162;DHT22;56269;51.738;21.652;2022-09-03T08:54:54;22.56;36.50
69162;DHT22;56269;51.738;21.652;2022-09-03T08:57:24;22.42;36.64
69162;DHT22;56269;51.738;21.652;2022-09-03T08:59:54;22.74;36.03
69162;DHT22;56269;51.738;21.652;2022-09-03T09:03:03;23.10;35.23
69162;DHT22;56269;51.738;21.652;2022-09-03T09:06:03;22.66;35.31
69162;DHT22;56269;51.738;21.652;2022-09-03T09:08:40;22.80;35.52
69162;DHT22;56269;51.738;21.652;2022-09-03T09:13:58;22.19;35.74
69162;DHT22;56269;51.738;21.652;2022-09-03T09:16:37;22.01;36.68
69162;DHT22;56269;51.738;21.652;2022-09-03T09:22:01;22.67;35.86
69162;DHT22;56269;51.738;21.652;2022-09-03T09:24:36;22.19;36.01
69162;DHT22;56269;51.738;21.652;2022-09-03T09:27:06;23.17;36.18
69162;DHT22;56269;51.738;21.652;2022-09-03T09:29:35;22.74;35.81
69162;DHT22;56269;51.738;21.652;2022-09-03T09:32:02;22.94;36.17
69162;DHT22;56269;51.738;21.652;2022-09-03T09:34:37;22.67;34.65
69162;DHT22;56269;51.738;21.652;2022-09-03T09:37:10;22.61;34.62
69162;DHT22;56269;51.738;21.652;2022-09-03T09:39:36;22.63;34.87
69162;DHT22;56269;51.738;21.652;2022-09-03T09:42:10;22.95;34.97
69162;DHT22;56269;51.738;21.652;2022-09-03T09:44:42;22.91;33.98
69162;DHT22;56269;51.738;21.652;2022-09-03T09:47:21;23.00;33.82
69162;DHT22;56269;51.738;21.652;2022-09-03T09:49:55;23.14;33.82
69162;DHT22;56269;51.738;21.652;2022-09-03T09:52:24;22.93;34.66
69162;DHT22;56269;51.738;21.652;2022-09-03T09:54:53;23.03;35.69
69162;DHT22;56269;51.738;21.652;2022-09-03T09:57:29;23.03;35.56
69162;DHT22;56269;51.738;21.652;2022-09-03T10:00:22;22.30;35.62
69162;DHT22;56269;51.738;21.652;2022-09-03T10:02:50;22.35;36.05
69162;DHT22;56269;51.738;21.652;2022-09-03T10:05:30;22.02;35.67
69162;DHT22;56269;51.738;21.652;2022-09-03T10:08:01;22.73;36.78
69162;DHT22;56269;51.738;21.652;2022-09-03T10:10:43;22.49;35.81
69162;DHT22;56269;51.738;21.652;2022-09-03T10:15:51;23.69;35.02
69162;DHT22;56269;51.738;21.652;2022-09-03T10:18:45;23.37;33.70
69162;DHT22;56269;51.738;21.652;2022-09-03T10:21:24;23.48;35.55
69162;DHT22;56269;51.738;21.652;2022-09-03T10:26:32;23.51;34.31
69162;DHT22;56269;51.738;21.652;2022-09-03T10:29:02;23.45;34.91
69162;DHT22;56269;51.738;21.652;2022-09-03T10:37:38;23.45;35.06
69162;DHT22;56269;51.738;21.652;2022-09-03T10:40:16;23.05;34.30
69162;DHT22;56269;51.738;21.652;2022-09-03T10:56:31;23.97;33.76
69162;DHT22;56269;51.738;21.652;2022-09-03T11:02:56;23.79;35.17
69162;DHT22;56269;51.738;21.652;2022-09-03T11:05:23;24.12;35.15
69162;DHT22;56269;51.738;21.652;2022-09-03T11:08:02;24.72;34.73
69162;DHT22;56269;51.738;21.652;2022-09-03T11:10:40;23.83;33.99
69162;DHT22;56269;51.738;21.652;2022-09-03T11:13:25;23.32;34.85
69162;DHT22;56269;51.738;21.652;2022-09-03T11:16:06;23.41;33.73
69162;DHT22;56269;51.738;21.652;2022-09-03T11:18:41;23.82;34.72
69162;DHT22;56269;51.738;21.652;2022-09-03T11:21:13;24.21;32.59
69162;DHT22;56269;51.738;21.652;2022-09-03T11:26:33;23.93;33.09
69162;DHT22;56269;51.738;21.652;2022-09-03T11:29:21;24.31;32.32
69162;DHT22;56269;51.738;21.652;2022-09-03T11:34:32;24.92;32.68
69162;DHT22;56269;51.738;21.652;2022-09-03T11:37:07;24.79;33.63
69162;DHT22;56269;51.738;21.652;2022-09-03T11:39:41;24.31;33.26
69162;DHT22;56269;51.738;21.652;2022-09-03T11:42:27;23.49;33.02
69162;DHT22;56269;51.738;21.652;2022-09-03T11:44:59;23.95;34.72
69162;DHT22;56269;51.738;21.652;2022-09-03T11:47:41;23.42;34.25
69162;DHT22;56269;51.738;21.652;2022-09-03T11:52:47;24.53;34.05
69162;DHT22;56269;51.738;21.652;2022-09-03T11:55:28;24.33;32.64
69162;DHT22;56269;51.738;21.652;2022-09-03T11:58:25;23.95;32.24
69162;DHT22;56269;51.738;21.652;2022-09-03T12:00:55;23.75;33.55
69162;DHT22;56269;51.738;21.652;2022-09-03T12:03:28;23.61;33.39
69162;DHT22;56269;51.738;21.652;2022-09-03T12:08:58;23.90;34.16
69162;DHT22;56269;51.738;21.652;2022-09-03T12:12:13;24.40;33.38
69162;DHT22;56269;51.738;21.652;2022-09-03T12:15:54;24.44;32.55
69162;DHT22;56269;51.738;21.652;2022-09-03T12:18:03;24.60;31.61
69162;DHT22;56269;51.738;21.652;2022-09-03T12:23:31;23.61;33.21
69162;DHT22;56269;51.738;21.652;2022-09-03T12:26:02;24.33;34.09
69162;DHT22;56269;51.738;21.652;2022-09-03T12:28:29;24.67;32.89
69162;DHT22;56269;51.738;21.652;2022-09-03T12:31:06;24.10;33.32
69162;DHT22;56269;51.738;21.652;2022-09-03T12:33:50;23.77;34.11
69162;DHT22;56269;51.738;21.652;2022-09-03T12:36:21;24.17;33.17
69162;DHT22;56269;51.738;21.652;2022-09-03T12:38:48;23.86;32.72
69162;DHT22;56269;51.738;21.652;2022-09-03T12:41:33;23.82;33.71
69162;DHT22;56269;51.738;21.652;2022-09-03T12:43:59;23.39;33.89
69162;DHT22;56269;51.738;21.652;2022-09-03T12:46:31;23.14;34.47
69162;DHT22;56269;51.738;21.652;2022-09-03T12:49:04;23.55;33.98
69162;DHT22;56269;51.738;21.652;2022-09-03T12:51:35;23.73;34.98
69162;DHT22;56269;51.738;21.652;2022-09-03T12:54:02;23.73;34.55
69162;DHT22;56269;51.738;21.652;2022-09-03T12:56:30;24.16;34.12
69162;DHT22;56269;51.738;21.652;2022-09-03T12:59:08;24.36;33.31
69162;DHT22;56269;51.738;21.652;2022-09-03T13:01:48;24.21;33.54
69162;DHT22;56269;51.738;21.652;2022-09-03T13:04:18;24.33;33.75
69162;DHT22;56269;51.738;21.652;2022-09-03T13:09:20;23.58;33.23
69162;DHT22;56269;51.738;21.652;2022-09-03T13:11:47;23.66;34.43
69162;DHT22;56269;51.738;21.652;2022-09-03T13:14:13;23.95;33.51
69162;DHT22;56269;51.738;21.652;2022-09-03T13:16:54;23.28;34.11
69162;DHT22;56269;51.738;21.652;2022-09-03T13:25:33;23.61;34.01
69162;DHT22;56269;51.738;21.652;2022-09-03T13:33:35;22.83;33.82
69162;DHT22;56269;51.738;21.652;2022-09-03T13:36:21;23.11;33.22
69162;DHT22;56269;51.738;21.652;2022-09-03T13:39:01;23.45;33.38
69162;DHT22;56269;51.738;21.652;2022-09-03T13:44:44;23.49;32.93
69162;DHT22;56269;51.738;21.652;2022-09-03T13:47:31;23.72;33.76
69162;DHT22;56269;51.738;21.652;2022-09-03T13:50:20;23.73;32.14
69162;DHT22;56269;51.738;21.652;2022-09-03T13:53:03;23.83;32.35
69162;DHT22;56269;51.738;21.652;2022-09-03T13:55:40;23.10;32.57
69162;DHT22;56269;51.738;21.652;2022-09-03T13:58:36;23.75;32.20
69162;DHT22;56269;51.738;21.652;2022-09-03T14:01:20;23.99;32.07
69162;DHT22;56269;51.738;21.652;2022-09-03T14:03:52;23.66;31.56
69162;DHT22;56269;51.738;21.652;2022-09-03T14:06:41;23.39;33.79
69162;DHT22;56269;51.738;21.652;2022-09-03T14:09:39;23.67;32.29
69162;DHT22;56269;51.738;21.652;2022-09-03T14:12:20;23.67;32.80
69162;DHT22;56269;51.738;21.652;2022-09-03T14:15:05;23.69;33.08
69162;DHT22;56269;51.738;21.652;2022-09-03T14:17:41;23.28;32.39
69162;DHT22;56269;51.738;21.652;2022-09-03T14:25:24;23.11;34.92
69162;DHT22;56269;51.738;21.652;2022-09-03T14:27:50;23.34;33.11
69162;DHT22;56269;51.738;21.652;2022-09-03T14:47:25;23.51;31.77
69162;DHT22;56269;51.738;21.652;2022-09-03T15:00:56;22.81;32.50
69162;DHT22;56269;51.738;21.652;2022-09-03T15:03:39;22.64;33.38
69162;DHT22;56269;51.738;21.652;2022-09-03T15:06:31;22.70;32.20
69162;DHT22;56269;51.738;21.652;2022-09-03T15:11:50;22.44;33.49
69162;DHT22;56269;51.738;21.652;2022-09-03T15:14:28;22.35;33.61
69162;DHT22;56269;51.738;21.652;2022-09-03T15:22:33;22.54;34.92
69162;DHT22;56269;51.738;21.652;2022-09-03T15:25:25;22.67;33.83
69162;DHT22;56269;51.738;21.652;2022-09-03T15:28:12;22.66;33.43
69162;DHT22;56269;51.738;21.652;2022-09-03T15:33:35;22.67;33.26
69162;DHT22;56269;51.738;21.652;2022-09-03T15:36:17;22.76;33.14
69162;DHT22;56269;51.738;21.652;2022-09-03T15:44:52;22.64;33.11
69162;DHT22;56269;51.738;21.652;2022-09-03T15:47:56;22.30;35.77
69162;DHT22;56269;51.738;21.652;2022-09-03T15:50:49;21.84;34.57
69162;DHT22;56269;51.738;21.652;2022-09-03T15:53:38;21.81;35.13
69162;DHT22;56269;51.738;21.652;2022-09-03T15:56:13;21.55;38.41
69162;DHT22;56269;51.738;21.652;2022-09-03T15:58:49;21.47;35.53
69162;DHT22;56269;51.738;21.652;2022-09-03T16:01:38;21.47;35.72
69162;DHT22;56269;51.738;21.652;2022-09-03T16:12:33;20.63;37.44
69162;DHT22;56269;51.738;21.652;2022-09-03T16:15:08;20.41;36.50
69162;DHT22;56269;51.738;21.652;2022-09-03T16:20:43;19.91;40.22
69162;DHT22;56269;51.738;21.652;2022-09-03T16:25:57;19.53;44.01
69162;DHT22;56269;51.738;21.652;2022-09-03T16:28:34;19.13;43.80
69162;DHT22;56269;51.738;21.652;2022-09-03T16:37:04;18.48;48.03
69162;DHT22;56269;51.738;21.652;2022-09-03T16:45:19;17.43;52.58
69162;DHT22;56269;51.738;21.652;2022-09-03T16:48:14;17.16;51.64
69162;DHT22;56269;51.738;21.652;2022-09-03T16:51:15;16.68;59.25
69162;DHT22;56269;51.738;21.652;2022-09-03T17:16:44;13.88;68.04
69162;DHT22;56269;51.738;21.652;2022-09-03T17:25:13;12.84;73.13
69162;DHT22;56269;51.738;21.652;2022-09-03T17:36:17;12.18;72.40
69162;DHT22;56269;51.738;21.652;2022-09-03T17:41:51;12.08;72.47
69162;DHT22;56269;51.738;21.652;2022-09-03T17:47:39;12.04;71.65
69162;DHT22;56269;51.738;21.652;2022-09-03T17:50:16;12.04;71.78
69162;DHT22;56269;51.738;21.652;2022-09-03T17:52:44;11.89;71.91
69162;DHT22;56269;51.738;21.652;2022-09-03T17:57:58;11.59;74.09
69162;DHT22;56269;51.738;21.652;2022-09-03T18:00:54;11.47;73.60
69162;DHT22;56269;51.738;21.652;2022-09-03T18:03:29;11.46;73.64
69162;DHT22;56269;51.738;21.652;2022-09-03T18:06:03;11.42;74.39
69162;DHT22;56269;51.738;21.652;2022-09-03T18:08:55;11.29;76.63
69162;DHT22;56269;51.738;21.652;2022-09-03T18:12:08;11.22;75.24
69162;DHT22;56269;51.738;21.652;2022-09-03T18:14:34;11.07;77.07
69162;DHT22;56269;51.738;21.652;2022-09-03T18:19:48;10.87;77.63
69162;DHT22;56269;51.738;21.652;2022-09-03T18:25:50;10.71;78.70
69162;DHT22;56269;51.738;21.652;2022-09-03T18:28:43;10.67;78.00
69162;DHT22;56269;51.738;21.652;2022-09-03T18:31:29;10.74;77.68
69162;DHT22;56269;51.738;21.652;2022-09-03T18:34:29;10.70;77.55
69162;DHT22;56269;51.738;21.652;2022-09-03T18:37:19;10.67;77.97
69162;DHT22;56269;51.738;21.652;2022-09-03T18:40:06;10.64;78.02
69162;DHT22;56269;51.738;21.652;2022-09-03T18:46:06;10.53;78.69
69162;DHT22;56269;51.738;21.652;2022-09-03T18:49:01;10.39;80.32
69162;DHT22;56269;51.738;21.652;2022-09-03T18:52:06;10.29;81.66
69162;DHT22;56269;51.738;21.652;2022-09-03T18:58:26;10.05;84.28
69162;DHT22;56269;51.738;21.652;2022-09-03T19:01:25;9.92;85.01
69162;DHT22;56269;51.738;21.652;2022-09-03T19:05:46;9.90;83.68
69162;DHT22;56269;51.738;21.652;2022-09-03T19:08:01;9.99;82.67
69162;DHT22;56269;51.738;21.652;2022-09-03T19:14:06;9.82;81.52
69162;DHT22;56269;51.738;21.652;2022-09-03T19:17:04;9.69;83.31
69162;DHT22;56269;51.738;21.652;2022-09-03T19:22:36;9.55;84.41
69162;DHT22;56269;51.738;21.652;2022-09-03T19:25:22;9.45;82.59
69162;DHT22;56269;51.738;21.652;2022-09-03T19:28:17;9.62;81.23
69162;DHT22;56269;51.738;21.652;2022-09-03T19:40:45;9.37;84.42
69162;DHT22;56269;51.738;21.652;2022-09-03T19:55:15;9.16;85.38
69162;DHT22;56269;51.738;21.652;2022-09-03T19:58:01;9.11;83.96
69162;DHT22;56269;51.738;21.652;2022-09-03T20:00:46;9.04;86.46
69162;DHT22;56269;51.738;21.652;2022-09-03T20:03:30;8.96;86.06
69162;DHT22;56269;51.738;21.652;2022-09-03T20:06:16;8.96;83.93
69162;DHT22;56269;51.738;21.652;2022-09-03T20:09:06;8.93;85.25
69162;DHT22;56269;51.738;21.652;2022-09-03T20:11:54;8.88;84.11
69162;DHT22;56269;51.738;21.652;2022-09-03T20:14:22;8.91;83.44
69162;DHT22;56269;51.738;21.652;2022-09-03T20:17:04;8.91;83.96
69162;DHT22;56269;51.738;21.652;2022-09-03T20:25:45;8.79;86.47
69162;DHT22;56269;51.738;21.652;2022-09-03T20:31:48;8.67;86.26
69162;DHT22;56269;51.738;21.652;2022-09-03T20:39:38;8.69;86.44
69162;DHT22;56269;51.738;21.652;2022-09-03T20:45:23;8.65;85.77
69162;DHT22;56269;51.738;21.652;2022-09-03T20:48:02;8.63;87.00
69162;DHT22;56269;51.738;21.652;2022-09-03T20:50:38;8.50;88.70
69162;DHT22;56269;51.738;21.652;2022-09-03T20:53:26;8.45;87.95
69162;DHT22;56269;51.738;21.652;2022-09-03T20:56:29;8.38;87.97
69162;DHT22;56269;51.738;21.652;2022-09-03T21:04:54;8.38;87.96
69162;DHT22;56269;51.738;21.652;2022-09-03T21:07:36;8.38;88.25
69162;DHT22;56269;51.738;21.652;2022-09-03T21:10:39;8.32;88.87
69162;DHT22;56269;51.738;21.652;2022-09-03T21:15:47;8.28;87.82
69162;DHT22;56269;51.738;21.652;2022-09-03T21:18:37;8.31;88.39
69162;DHT22;56269;51.738;21.652;2022-09-03T21:23:46;8.35;89.41
69162;DHT22;56269;51.738;21.652;2022-09-03T21:26:26;8.31;89.43
69162;DHT22;56269;51.738;21.652;2022-09-03T21:29:08;8.35;89.55